Latest Weather Observations for Cerberus

IDV60801

Issued at 7:32 pm EDT Wednesday 22 February 2017 (issued every 30 minutes, with the page automatically refreshed every 10 minutes)

About weather observations | Map of weather stations | Latest weather observations for VIC | Other Formats
Station Details ID: 086361 Name: CERBERUS Lat: -38.36 Lon: 145.18 Height: 12.69 m
Data from the previous 72 hours. | See also: Recent months at Cerberus
Date/Time
EDT
Temp
°C
App
Temp
°C
Dew
Point
°C
Rel
Hum
%
Delta-T
°C
Wind Press
QNH
hPa
Press
MSL
hPa
Rain since
9am
mm
Dir  Spd
km/h
Gust
km/h
Spd
kts
Gust
kts
22/07:30pm 30.6 27.8 5.1 20 13.4 NNE 9 17 5 9 1007.5 1007.5 0.0
22/07:00pm 31.6 27.5 4.4 18 14.2 NNE 15 24 8 13 1007.6 1007.6 0.0
22/06:30pm 31.6 27.9 4.4 18 14.1 N 13 30 7 16 1007.9 1007.9 0.0
22/06:00pm 32.4 28.5 3.4 16 14.9 N 13 20 7 11 1008.3 1008.3 0.0
22/05:30pm 32.2 28.1 4.1 17 14.6 N 15 26 8 14 1008.7 1008.7 0.0
22/05:00pm 31.9 27.6 5.4 19 14.1 NNW 17 30 9 16 1009.1 1009.1 0.0
22/04:30pm 31.8 27.2 3.8 17 14.4 N 17 30 9 16 1009.2 1009.2 0.0
22/04:00pm 31.9 28.0 5.4 19 14.1 N 15 32 8 17 1009.7 1009.7 0.0
22/03:30pm 31.1 26.2 4.0 18 14.0 N 19 35 10 19 1009.6 1009.6 0.0
22/03:00pm 31.2 27.2 4.9 19 13.8 N 15 32 8 17 1010.4 1010.4 0.0
22/02:30pm 29.9 26.0 5.2 21 12.9 NNW 15 30 8 16 1011.5 1011.5 0.0
22/02:00pm 29.4 26.0 6.1 23 12.3 N 13 30 7 16 1012.0 1012.0 0.0
22/01:30pm 28.4 23.5 5.3 23 12.0 N 20 33 11 18 1012.5 1012.5 0.0
22/01:00pm 27.7 23.0 5.3 24 11.6 N 19 33 10 18 1012.9 1012.9 0.0
22/12:30pm 26.1 24.5 10.3 37 8.8 NE 9 17 5 9 1013.4 1013.4 0.0
22/12:00pm 23.9 22.6 11.3 45 7.1 NE 9 17 5 9 1014.2 1014.1 0.0
22/11:30am 22.7 21.8 11.4 49 6.3 NE 7 13 4 7 1014.7 1014.6 0.0
22/11:00am 21.3 19.2 11.3 53 5.5 NE 13 20 7 11 1014.9 1014.8 0.0
22/10:30am 20.3 19.3 12.3 60 4.5 NE 9 17 5 9 1015.4 1015.3 0.0
22/10:00am 19.3 18.5 12.8 66 3.7 NE 9 17 5 9 1015.5 1015.4 0.0
22/09:30am 17.5 16.1 12.2 71 2.9 NE 11 20 6 11 1015.7 1015.6 0.0
22/09:00am 16.8 15.3 11.9 73 2.7 NNE 11 17 6 9 1015.9 1015.8 0.0
22/08:30am 16.0 14.5 12.0 77 2.2 NNE 11 20 6 11 1015.9 1015.8 0.0
22/08:00am 15.4 13.9 11.8 79 1.9 NNE 11 22 6 12 1015.8 1015.7 0.0
22/07:30am 14.7 13.1 11.7 82 1.6 NNE 11 19 6 10 1015.5 1015.4 0.0
22/07:00am 14.4 12.8 11.6 83 1.5 NNE 11 20 6 11 1015.4 1015.3 0.0
22/06:30am 14.3 13.5 11.6 84 1.4 NNE 7 15 4 8 1015.4 1015.3 0.0
22/06:00am 14.2 13.3 11.5 84 1.4 NNE 7 13 4 7 1015.3 1015.2 0.0
22/05:30am 14.4 13.2 11.7 84 1.4 NNE 9 17 5 9 1015.5 1015.4 0.0
22/05:00am 14.4 13.2 11.6 83 1.5 NNE 9 15 5 8 1015.6 1015.5 0.0
22/04:30am 14.6 13.4 11.7 83 1.6 NE 9 17 5 9 1015.7 1015.6 0.0
22/04:00am 14.8 13.3 11.8 82 1.6 NE 11 22 6 12 1016.1 1016.0 0.0
22/03:30am 14.9 13.8 11.9 82 1.6 NE 9 19 5 10 1016.3 1016.2 0.0
22/03:00am 15.2 13.3 11.8 80 1.8 NE 13 24 7 13 1016.5 1016.4 0.0
22/02:30am 15.3 13.8 11.9 80 1.8 NE 11 24 6 13 1016.9 1016.8 0.0
22/02:00am 15.4 13.9 12.0 80 1.8 NE 11 22 6 12 1017.2 1017.1 0.0
22/01:30am 15.3 14.2 12.1 81 1.7 NE 9 20 5 11 1017.7 1017.6 0.0
22/01:00am 14.7 13.9 11.7 82 1.6 NE 7 11 4 6 1018.1 1018.0 0.0
22/12:30am 14.5 13.6 11.5 82 1.6 ENE 7 11 4 6 1018.5 1018.4 0.0
22/12:00am 13.7 13.2 10.7 82 1.6 ENE 4 6 2 3 1018.6 1018.5 0.0
 
Date/Time
EDT
Temp
°C
App
Temp
°C
Dew
Point
°C
Rel
Hum
%
Delta-T
°C
Wind Press
QNH
hPa
Press
MSL
hPa
Rain since
9am
mm
Dir  Spd
km/h
Gust
km/h
Spd
kts
Gust
kts
21/11:30pm 13.9 13.4 10.9 82 1.6 ENE 4 7 2 4 1018.9 1018.8 0.0
21/11:00pm 14.3 13.7 10.5 78 2.0 E 4 6 2 3 1019.2 1019.1 0.0
21/10:30pm 15.4 14.5 10.8 74 2.4 ESE 6 9 3 5 1019.2 1019.1 0.0
21/10:00pm 15.9 14.6 11.3 74 2.5 E 9 17 5 9 1019.3 1019.2 0.0
21/09:30pm 16.1 15.0 11.9 76 2.3 SE 9 15 5 8 1019.0 1018.9 0.0
21/09:00pm 15.5 14.7 11.1 75 2.3 SE 6 9 3 5 1018.9 1018.8 0.0
21/08:30pm 15.9 15.0 10.7 71 2.8 SSE 6 7 3 4 1018.7 1018.6 0.0
21/08:00pm 17.1 15.7 10.9 67 3.3 SE 9 15 5 8 1018.4 1018.3 0.0
21/07:30pm 18.5 17.2 11.3 63 3.9 SE 9 13 5 7 1018.4 1018.3 0.0
21/07:00pm 19.0 17.1 10.6 58 4.5 SE 11 15 6 8 1018.5 1018.4 0.0
21/06:30pm 19.2 17.6 10.2 56 4.8 SE 9 13 5 7 1018.6 1018.5 0.0
21/06:00pm 19.4 17.6 10.9 58 4.6 SE 11 19 6 10 1018.7 1018.6 0.0
21/05:30pm 19.9 18.6 11.4 58 4.7 S 9 15 5 8 1018.8 1018.7 0.0
21/05:00pm 19.6 17.6 11.6 60 4.4 SSW 13 19 7 10 1019.0 1018.9 0.0
21/04:30pm 20.3 18.3 11.5 57 4.9 SSW 13 17 7 9 1019.3 1019.2 0.0
21/04:00pm 19.4 17.2 10.7 57 4.7 SSW 13 19 7 10 1019.5 1019.4 0.0
21/03:30pm 19.6 17.3 10.6 56 4.9 SSW 13 19 7 10 1020.0 1019.9 0.0
21/03:00pm 19.8 17.4 11.3 58 4.7 SSW 15 20 8 11 1020.1 1020.0 0.0
21/02:30pm 18.7 17.5 11.5 63 3.9 S 9 15 5 8 1020.3 1020.2 0.0
21/02:00pm 19.8 18.6 11.6 59 4.5 SSW 9 15 5 8 1020.5 1020.4 0.0
21/01:30pm 18.9 18.3 10.5 58 4.5 SE 4 6 2 3 1020.7 1020.6 0.0
21/01:00pm 18.1 17.1 11.0 63 3.8 SW 7 11 4 6 1021.1 1021.0 0.0
21/12:30pm 18.4 17.0 9.7 57 4.6 SSE 7 15 4 8 1021.3 1021.2 0.0
21/12:00pm 18.5 16.9 10.1 58 4.5 SSW 9 15 5 8 1021.4 1021.3 0.0
21/11:30am 17.7 16.2 10.6 63 3.8 S 9 13 5 7 1021.2 1021.1 0.0
21/11:00am 18.7 17.5 10.3 58 4.5 SW 7 13 4 7 1021.4 1021.3 0.0
21/10:30am 17.9 15.9 10.3 61 4.1 SW 11 17 6 9 1021.5 1021.4 0.0
21/10:00am 18.0 16.6 10.9 63 3.8 SW 9 19 5 10 1021.3 1021.2 0.0
21/09:30am 16.8 15.4 10.9 68 3.2 WSW 9 15 5 8 1021.2 1021.1 0.0
21/09:00am 15.7 16.0 12.3 80 1.9 WNW 2 6 1 3 1020.9 1020.8 2.2
21/08:30am 14.8 14.3 11.9 83 1.6 WNW 6 7 3 4 1020.7 1020.6 2.2
21/08:00am 14.1 14.0 12.0 87 1.1 NNW 4 6 2 3 1020.3 1020.2 2.2
21/07:30am 12.9 12.1 11.0 88 1.0 NNW 6 7 3 4 1019.9 1019.8 2.2
21/07:00am 12.5 12.0 10.6 88 1.0 N 4 6 2 3 1019.6 1019.5 2.2
21/06:30am 12.0 10.8 9.6 85 1.2 NNW 6 6 3 3 1019.0 1018.9 2.2
21/06:00am 13.7 12.6 10.1 79 1.9 WNW 6 9 3 5 1018.6 1018.5 2.2
21/05:30am 14.4 13.9 10.6 78 2.0 W 4 6 2 3 1018.5 1018.4 2.2
21/05:00am 14.6 13.6 10.4 76 2.2 W 6 7 3 4 1018.4 1018.3 2.2
21/04:30am 14.2 13.6 10.4 78 2.0 WNW 4 6 2 3 1018.2 1018.1 2.2
21/04:00am 14.5 13.8 10.1 75 2.3 W 4 6 2 3 1018.1 1018.0 2.2
21/03:30am 14.7 13.6 10.1 74 2.4 W 6 11 3 6 1018.1 1018.0 2.2
21/03:00am 14.8 13.6 10.2 74 2.4 W 7 13 4 7 1018.0 1017.9 2.2
21/02:30am 14.7 13.6 10.1 74 2.4 WSW 6 11 3 6 1017.8 1017.7 2.2
21/02:00am 14.9 13.6 10.1 73 2.5 W 7 9 4 5 1018.0 1017.9 2.2
21/01:30am 15.0 13.9 9.8 71 2.7 W 6 9 3 5 1018.1 1018.0 2.2
21/01:00am 15.2 13.1 9.8 70 2.8 W 11 19 6 10 1018.1 1018.0 2.2
21/12:30am 14.9 13.6 9.9 72 2.6 W 7 13 4 7 1018.2 1018.1 2.2
21/12:00am 14.6 13.4 10.2 75 2.3 W 7 13 4 7 1018.1 1018.0 2.2
 
Date/Time
EDT
Temp
°C
App
Temp
°C
Dew
Point
°C
Rel
Hum
%
Delta-T
°C
Wind Press
QNH
hPa
Press
MSL
hPa
Rain since
9am
mm
Dir  Spd
km/h
Gust
km/h
Spd
kts
Gust
kts
20/11:30pm 14.0 12.8 10.2 78 2.0 W 7 11 4 6 1018.1 1018.0 2.2
20/11:00pm 13.9 12.9 10.3 79 1.9 WSW 6 9 3 5 1017.9 1017.8 2.2
20/10:30pm 13.9 12.8 10.5 80 1.8 W 7 9 4 5 1017.8 1017.7 2.2
20/10:00pm 14.0 11.4 10.8 81 1.7 WSW 15 22 8 12 1017.6 1017.5 2.2
20/09:30pm 15.0 12.9 9.8 71 2.7 WSW 11 20 6 11 1017.4 1017.3 2.2
20/09:00pm 14.6 12.5 9.6 72 2.6 WSW 11 19 6 10 1016.9 1016.8 2.2
20/08:30pm 14.6 11.6 10.6 77 2.1 SW 17 32 9 17 1016.4 1016.3 2.2
20/08:00pm 15.3 13.0 10.3 72 2.6 WSW 13 22 7 12 1015.9 1015.8 2.2
20/07:30pm 15.6 11.8 9.9 69 3.0 WSW 20 37 11 20 1015.6 1015.5 2.2
20/07:00pm 15.9 12.1 9.8 67 3.2 SW 20 33 11 18 1015.2 1015.1 2.2
20/06:30pm 16.6 12.0 9.8 64 3.6 SW 24 37 13 20 1014.9 1014.8 2.2
20/06:00pm 17.6 12.4 9.0 57 4.5 SW 26 43 14 23 1014.4 1014.3 2.2
20/05:30pm 17.8 12.3 9.2 57 4.5 WSW 28 41 15 22 1014.1 1014.0 2.2
20/05:00pm 17.2 11.0 9.4 60 4.1 WSW 32 54 17 29 1013.7 1013.6 2.2
20/04:51pm 18.1 12.7 9.5 57 4.5 SW 28 54 15 29 1013.6 1013.5 2.2
20/04:30pm 18.2 13.3 10.1 59 4.3 SW 26 43 14 23 1013.4 1013.4 2.2
20/04:15pm 16.8 11.3 9.2 61 3.9 SW 28 46 15 25 1013.4 1013.4 2.2
20/04:00pm 17.0 11.3 9.7 62 3.8 SW 30 44 16 24 1013.3 1013.3 2.2
20/03:30pm 17.1 12.2 11.4 69 3.1 SW 28 43 15 23 1013.1 1013.1 2.2
20/03:17pm 15.1 9.4 9.9 71 2.7 SW 30 48 16 26 1013.2 1013.2 2.2
20/03:00pm 17.8 12.7 10.7 63 3.8 SW 28 41 15 22 1013.0 1013.0 2.2
20/02:57pm 16.9 11.1 9.6 62 3.8 SW 30 48 16 26 1013.0 1013.0 2.2
20/02:30pm 15.4 9.8 10.0 70 2.8 WSW 30 43 16 23 1013.1 1013.1 2.2
20/02:00pm 17.6 12.9 10.7 64 3.7 WSW 26 35 14 19 1012.9 1012.9 1.8
20/01:30pm 16.7 11.1 10.1 65 3.5 WSW 30 50 16 27 1012.6 1012.6 1.8
20/01:28pm 17.1 12.0 10.7 66 3.4 WSW 28 50 15 27 1012.6 1012.6 1.8
20/01:00pm 15.4 13.5 12.9 85 1.4 WSW 15 22 8 12 1012.7 1012.7 1.8
20/12:30pm 14.9 12.3 12.0 83 1.6 WSW 17 26 9 14 1012.9 1012.9 1.2
20/12:00pm 14.3 11.0 11.5 83 1.5 WSW 20 37 11 20 1013.0 1013.0 0.8
20/11:30am 14.3 9.3 9.7 74 2.4 SW 26 44 14 24 1012.5 1012.5 0.6
20/11:00am 13.5 10.0 10.9 84 1.4 SW 20 43 11 23 1012.6 1012.6 0.6
20/10:30am 16.0 11.1 10.1 68 3.1 SW 26 39 14 21 1012.2 1012.2 0.2
20/10:00am 15.0 11.4 9.8 71 2.7 SW 19 30 10 16 1011.8 1011.8 0.2
20/09:30am 15.0 11.1 9.4 69 2.9 SW 20 32 11 17 1011.5 1011.5 0.0
20/09:00am 15.2 13.3 10.4 73 2.5 WSW 11 20 6 11 1011.1 1011.1 10.2
20/08:30am 13.8 12.3 10.6 81 1.7 WNW 9 15 5 8 1010.9 1010.9 10.2
20/08:00am 12.1 10.2 8.9 81 1.6 WNW 9 13 5 7 1010.5 1010.5 10.2
20/07:30am 11.7 10.2 9.1 84 1.3 WNW 7 11 4 6 1010.2 1010.2 10.2
20/07:00am 11.6 9.7 9.2 85 1.2 WNW 9 15 5 8 1009.9 1009.9 10.2
20/06:30am 11.5 10.1 8.9 84 1.3 WNW 6 9 3 5 1009.5 1009.5 10.2
20/06:00am 11.4 9.9 9.1 86 1.2 W 7 11 4 6 1009.3 1009.3 10.2
20/05:30am 11.4 9.6 9.5 88 1.0 W 9 17 5 9 1008.9 1008.9 10.2
20/05:00am 11.2 8.9 9.1 87 1.0 WNW 11 17 6 9 1008.7 1008.7 10.2
20/04:30am 11.5 8.9 9.4 87 1.1 W 13 22 7 12 1008.6 1008.6 9.0
20/04:00am 11.3 9.4 9.2 87 1.1 WNW 9 17 5 9 1008.6 1008.6 8.0
20/03:30am 11.5 9.4 9.6 88 1.0 WNW 11 17 6 9 1008.6 1008.6 7.6
20/03:00am 11.3 8.2 9.0 86 1.1 NW 15 22 8 12 1008.6 1008.6 7.6
20/02:30am 11.1 9.2 9.0 87 1.0 WNW 9 13 5 7 1008.7 1008.7 7.6
20/02:00am 11.4 8.8 9.3 87 1.1 WNW 13 20 7 11 1008.7 1008.7 7.6
20/01:30am 11.2 9.3 8.9 86 1.1 WNW 9 13 5 7 1008.9 1008.9 7.2
20/01:00am 11.7 9.5 9.4 86 1.2 WNW 11 17 6 9 1008.7 1008.7 5.4
20/12:30am 11.5 8.5 9.2 86 1.2 NW 15 24 8 13 1008.9 1008.9 5.4
20/12:00am 11.2 7.7 8.6 84 1.3 WNW 17 24 9 13 1009.1 1009.1 5.4
 
Date/Time
EDT
Temp
°C
App
Temp
°C
Dew
Point
°C
Rel
Hum
%
Delta-T
°C
Wind Press
QNH
hPa
Press
MSL
hPa
Rain since
9am
mm
Dir  Spd
km/h
Gust
km/h
Spd
kts
Gust
kts
19/11:30pm 10.9 8.9 8.5 85 1.2 NW 9 15 5 8 1009.1 1009.1 5.0
19/11:00pm 11.2 8.8 8.6 84 1.3 WSW 11 20 6 11 1009.5 1009.5 5.0
19/10:30pm 10.5 8.2 7.4 81 1.5 NW 9 13 5 7 1009.3 1009.3 2.8
19/10:00pm 11.2 9.0 7.7 79 1.7 NW 9 13 5 7 1009.4 1009.4 2.8
19/09:30pm 11.7 9.6 8.2 79 1.7 WNW 9 11 5 6 1009.2 1009.2 2.8
19/09:00pm 11.7 9.9 8.0 78 1.8 WNW 7 11 4 6 1008.9 1008.9 2.8
19/08:30pm 12.0 9.0 7.7 75 2.1 W 13 22 7 12 1008.7 1008.7 2.6
19/08:00pm 12.8 9.5 6.6 66 3.0 W 13 24 7 13 1008.4 1008.4 2.4

Other Formats:

Comma delimited format used in spreadsheet applications
http://www.bom.gov.au/fwo/IDV60801/IDV60801.94898.axf

JavaScript Object Notation format (JSON) in row-major order
http://www.bom.gov.au/fwo/IDV60801/IDV60801.94898.json